Time;durP1;ratioP1;P1;durP2;ratioP2;P2;SDS_P1;SDS_P2;PMS_P1;PMS_P2;Temp;Humidity;BMP_temperature;BMP_pressure;BME280_temperature;BME280_humidity;BME280_pressure;Samples;Min_cycle;Max_cycle;Signal;HPM_P1;HPM_P2
2022/09/13 00:01:08;;;;;;;7.90;4.70;;;;;;;11.11;91.28;93662.97;5011519;28;20060;-63
2022/09/13 00:03:35;;;;;;;8.65;5.18;;;;;;;11.15;90.77;93660.94;5012399;28;20050;-65
2022/09/13 00:06:11;;;;;;;7.15;5.18;;;;;;;11.15;90.00;93658.19;5011424;28;20556;-63
2022/09/13 00:08:38;;;;;;;7.88;4.68;;;;;;;10.95;90.40;93650.75;5012263;28;20054;-64
2022/09/13 00:11:06;;;;;;;7.90;4.47;;;;;;;11.03;89.76;93645.06;5011333;28;20072;-69
2022/09/13 00:13:33;;;;;;;7.80;5.03;;;;;;;11.11;89.39;93641.78;5012198;28;20138;-67
2022/09/13 00:16:02;;;;;;;8.18;4.97;;;;;;;11.10;89.08;93640.22;5011623;28;20054;-72
2022/09/13 00:18:29;;;;;;;9.52;5.10;;;;;;;11.06;89.20;93636.00;5011654;28;20042;-64
2022/09/13 00:21:26;;;;;;;8.45;5.10;;;;;;;11.06;89.91;93633.25;5011716;28;20052;-68
2022/09/13 00:23:54;;;;;;;7.00;4.72;;;;;;;11.05;90.08;93639.97;4993839;28;20406;-63
2022/09/13 00:26:25;;;;;;;12.97;6.60;;;;;;;10.90;91.12;93634.75;5010877;28;21759;-63
2022/09/13 00:28:56;;;;;;;9.90;6.00;;;;;;;10.92;90.61;93631.59;5011697;28;20413;-63
2022/09/13 00:31:25;;;;;;;8.00;5.18;;;;;;;10.93;90.08;93631.19;5010759;28;20697;-62
2022/09/13 00:33:51;;;;;;;7.85;5.13;;;;;;;10.94;89.96;93634.69;5011607;28;20038;-63
2022/09/13 00:36:18;;;;;;;10.38;5.43;;;;;;;10.96;89.90;93626.78;5009487;28;20384;-64
2022/09/13 00:38:45;;;;;;;10.13;4.93;;;;;;;10.75;91.04;93626.06;5012112;28;20046;-63
2022/09/13 00:41:17;;;;;;;10.20;5.15;;;;;;;10.76;90.82;93637.78;5011140;28;20064;-69
2022/09/13 00:43:59;;;;;;;8.60;5.07;;;;;;;10.75;91.15;93631.53;5011566;28;20054;-63
2022/09/13 00:46:47;;;;;;;9.07;5.32;;;;;;;10.64;92.23;93625.47;5010235;28;20774;-64
2022/09/13 00:49:26;;;;;;;9.23;5.25;;;;;;;10.74;91.37;93621.75;5010825;28;20135;-63
2022/09/13 00:51:57;;;;;;;9.57;5.23;;;;;;;10.82;91.09;93627.09;5011364;28;20120;-69
2022/09/13 00:54:32;;;;;;;8.68;5.05;;;;;;;10.75;91.26;93617.81;5010018;28;21702;-67
2022/09/13 00:57:03;;;;;;;31.13;17.55;;;;;;;10.71;91.00;93608.88;5010661;28;20152;-69
2022/09/13 00:59:36;;;;;;;13.25;7.20;;;;;;;10.66;91.16;93614.84;5011247;28;20054;-63
2022/09/13 01:02:03;;;;;;;9.43;5.40;;;;;;;10.71;91.21;93616.34;5010527;28;20046;-74
2022/09/13 01:04:33;;;;;;;8.33;5.30;;;;;;;10.64;91.49;93614.50;5009733;28;20038;-62
2022/09/13 01:07:03;;;;;;;9.40;4.80;;;;;;;10.63;91.71;93615.72;5010835;28;20119;-64
2022/09/13 01:09:32;;;;;;;8.43;5.22;;;;;;;10.59;91.80;93612.28;5011047;28;20052;-63
2022/09/13 01:12:07;;;;;;;9.68;5.13;;;;;;;10.50;92.02;93625.78;5010780;28;20695;-66
2022/09/13 01:14:34;;;;;;;7.25;4.90;;;;;;;10.52;91.80;93624.19;5010748;28;20048;-63
2022/09/13 01:17:01;;;;;;;7.37;4.83;;;;;;;10.58;91.11;93627.19;5010415;28;20054;-62
2022/09/13 01:19:28;;;;;;;8.98;5.50;;;;;;;10.56;91.45;93616.66;5010713;28;20046;-63
2022/09/13 01:22:16;;;;;;;8.05;4.90;;;;;;;10.57;91.44;93622.91;5010421;28;20462;-64
2022/09/13 01:25:18;;;;;;;11.90;5.35;;;;;;;10.46;92.48;93625.06;5010691;28;20045;-64
2022/09/13 01:28:16;;;;;;;11.23;5.32;;;;;;;10.52;92.11;93626.91;5008708;28;20050;-68
2022/09/13 01:30:57;;;;;;;10.37;5.27;;;;;;;10.43;91.83;93621.22;5009929;28;20049;-64
2022/09/13 01:33:29;;;;;;;9.73;5.25;;;;;;;10.38;92.69;93614.25;5009628;28;20501;-63
2022/09/13 01:36:11;;;;;;;10.13;5.40;;;;;;;10.29;93.62;93613.22;5008365;28;20045;-65
2022/09/13 01:39:13;;;;;;;9.57;5.60;;;;;;;10.14;93.51;93613.50;5009920;28;20449;-65
2022/09/13 01:41:58;;;;;;;11.30;5.43;;;;;;;10.16;93.49;93602.09;4998657;28;20610;-66
2022/09/13 01:44:53;;;;;;;11.87;7.30;;;;;;;10.14;94.17;93602.53;5009321;28;20855;-63
2022/09/13 01:47:33;;;;;;;10.50;6.32;;;;;;;10.19;93.85;93598.53;5009435;28;20602;-63
2022/09/13 01:50:27;;;;;;;9.63;6.03;;;;;;;10.18;93.88;93597.75;5009805;28;20068;-65
2022/09/13 01:53:04;;;;;;;10.38;5.80;;;;;;;10.23;93.94;93607.44;5010135;28;20045;-62
2022/09/13 01:55:55;;;;;;;10.88;5.63;;;;;;;10.16;93.45;93602.88;5010371;28;20716;-63
2022/09/13 01:58:31;;;;;;;9.80;5.83;;;;;;;10.01;94.77;93607.06;5009235;28;20697;-64
2022/09/13 02:01:14;;;;;;;11.40;6.13;;;;;;;10.07;94.51;93610.13;5009946;28;20056;-68
2022/09/13 02:04:12;;;;;;;10.55;6.22;;;;;;;10.12;94.64;93612.34;5010277;28;20072;-63
2022/09/13 02:06:54;;;;;;;10.32;6.10;;;;;;;10.21;94.07;93607.09;4996664;28;20341;-63
2022/09/13 02:09:24;;;;;;;10.27;6.40;;;;;;;10.13;94.44;93608.44;4993510;28;20207;-64
2022/09/13 02:12:00;;;;;;;9.70;6.30;;;;;;;10.09;94.49;93613.22;5010370;28;20057;-66
2022/09/13 02:14:33;;;;;;;10.10;6.10;;;;;;;10.12;94.36;93612.34;5008938;28;20225;-70
2022/09/13 02:17:14;;;;;;;9.93;6.22;;;;;;;10.23;93.60;93601.19;5009777;28;20041;-64
2022/09/13 02:19:59;;;;;;;9.82;6.20;;;;;;;10.22;93.44;93616.09;5009982;28;20050;-63
2022/09/13 02:22:31;;;;;;;10.05;5.78;;;;;;;10.23;93.48;93612.16;5008988;28;20626;-64
2022/09/13 02:25:03;;;;;;;10.17;5.43;;;;;;;10.22;93.29;93614.13;5009669;28;20594;-64
2022/09/13 02:27:33;;;;;;;8.98;5.78;;;;;;;10.24;93.20;93614.50;5009720;28;20053;-64
2022/09/13 02:30:08;;;;;;;11.73;6.22;;;;;;;10.16;93.02;93613.84;5009415;28;20052;-64
2022/09/13 02:32:41;;;;;;;9.07;5.85;;;;;;;10.00;93.89;93606.31;5010101;28;20045;-70
2022/09/13 02:35:20;;;;;;;10.20;5.97;;;;;;;9.95;94.28;93623.22;5009156;28;20048;-75
2022/09/13 02:37:57;;;;;;;10.23;5.57;;;;;;;9.87;94.49;93619.06;5009912;28;20049;-66
2022/09/13 02:40:30;;;;;;;11.57;5.85;;;;;;;9.80;95.36;93619.19;5008955;28;20711;-63
2022/09/13 02:43:10;;;;;;;11.00;6.35;;;;;;;9.78;96.05;93624.31;5009515;28;20049;-68
2022/09/13 02:45:52;;;;;;;9.65;6.03;;;;;;;9.85;95.69;93629.66;5009778;28;20046;-64
2022/09/13 02:48:40;;;;;;;10.10;6.07;;;;;;;9.84;94.71;93630.09;5008717;28;20852;-64
2022/09/13 02:51:28;;;;;;;8.73;5.77;;;;;;;9.85;94.53;93621.44;5009076;28;20071;-74
2022/09/13 02:54:05;;;;;;;8.95;5.55;;;;;;;9.94;94.14;93615.41;5009574;28;20072;-65
2022/09/13 02:56:32;;;;;;;8.35;5.60;;;;;;;9.98;93.29;93622.41;5009807;28;20064;-64
2022/09/13 02:59:14;;;;;;;9.75;5.70;;;;;;;9.95;93.68;93619.72;5009046;28;20046;-64
2022/09/13 03:01:42;;;;;;;9.23;5.80;;;;;;;9.73;94.23;93616.56;5009824;28;20116;-64
2022/09/13 03:04:10;;;;;;;12.83;6.20;;;;;;;9.75;94.77;93612.22;5009155;28;20064;-74
2022/09/13 03:06:37;;;;;;;9.70;5.50;;;;;;;9.78;94.57;93616.09;5009637;28;20054;-63
2022/09/13 03:09:05;;;;;;;9.68;6.10;;;;;;;9.62;95.26;93619.50;5009062;28;20053;-65
2022/09/13 03:11:52;;;;;;;9.43;5.90;;;;;;;9.70;95.00;93611.91;5009127;28;20046;-67
2022/09/13 03:14:36;;;;;;;9.45;5.88;;;;;;;9.75;94.27;93608.72;5007620;28;20695;-71
2022/09/13 03:17:23;;;;;;;10.00;5.50;;;;;;;9.79;94.03;93601.97;5008670;28;20049;-63
2022/09/13 03:20:08;;;;;;;8.68;5.40;;;;;;;9.80;93.23;93608.25;5010173;28;20549;-63
2022/09/13 03:23:22;;;;;;;137.68;79.15;;;;;;;9.77;93.17;93611.81;5011822;28;21010;-63
2022/09/13 03:25:48;;;;;;;19.13;10.85;;;;;;;9.71;92.41;93606.03;4999361;28;20093;-69
2022/09/13 03:29:06;;;;;;;13.75;7.30;;;;;;;9.62;93.16;93607.75;5012266;28;20093;-69
2022/09/13 03:31:36;;;;;;;8.73;5.23;;;;;;;9.55;94.08;93605.91;5002375;28;20111;-63
2022/09/13 03:34:11;;;;;;;10.85;5.43;;;;;;;9.50;94.03;93601.69;5012114;28;20037;-63
2022/09/13 03:36:46;;;;;;;10.98;5.78;;;;;;;9.51;94.03;93597.75;5012876;28;20137;-63
2022/09/13 03:39:30;;;;;;;11.15;5.30;;;;;;;9.46;93.64;93590.00;5011792;28;20038;-64
2022/09/13 03:42:04;;;;;;;8.90;5.60;;;;;;;9.50;93.94;93596.19;5012183;28;20058;-62
2022/09/13 03:44:34;;;;;;;9.07;5.57;;;;;;;9.51;93.90;93588.75;5012212;28;20411;-64
2022/09/13 03:47:04;;;;;;;10.02;5.38;;;;;;;9.53;93.56;93592.63;5012095;28;20054;-63
2022/09/13 03:49:31;;;;;;;11.50;5.85;;;;;;;9.48;93.41;93584.13;5012428;28;20050;-62
2022/09/13 03:51:59;;;;;;;10.18;5.20;;;;;;;9.32;95.41;93587.50;5012148;28;20056;-63
2022/09/13 03:54:31;;;;;;;8.63;5.43;;;;;;;9.35;94.94;93590.16;5012183;28;20072;-67
2022/09/13 03:57:21;;;;;;;8.70;5.10;;;;;;;9.44;94.64;93586.13;5027076;28;20450;-62
2022/09/13 03:59:54;;;;;;;9.25;5.57;;;;;;;9.42;95.45;93589.28;5012199;28;20050;-69
2022/09/13 04:02:23;;;;;;;9.23;5.60;;;;;;;9.38;95.44;93581.13;5011033;28;20951;-63
2022/09/13 04:04:50;;;;;;;8.55;5.32;;;;;;;9.33;95.46;93581.59;5011982;28;20091;-63
2022/09/13 04:07:22;;;;;;;8.82;5.80;;;;;;;9.41;95.06;93590.47;5011623;28;20038;-63
2022/09/13 04:09:49;;;;;;;8.80;5.50;;;;;;;9.28;95.98;93582.06;5012187;28;20049;-65
2022/09/13 04:12:17;;;;;;;10.02;5.78;;;;;;;9.32;96.08;93590.25;5011427;28;20050;-63
2022/09/13 04:14:44;;;;;;;10.63;5.95;;;;;;;9.27;96.10;93587.97;5010269;28;20111;-63
2022/09/13 04:17:11;;;;;;;10.27;5.63;;;;;;;9.15;97.08;93592.06;5011445;28;20483;-64
2022/09/13 04:19:38;;;;;;;10.02;5.80;;;;;;;9.12;96.92;93593.66;5012460;28;20041;-68
2022/09/13 04:22:06;;;;;;;10.80;5.83;;;;;;;9.25;96.68;93596.59;5011562;28;20377;-62
2022/09/13 04:24:32;;;;;;;11.35;6.22;;;;;;;9.24;97.16;93595.06;5011547;28;20050;-65
2022/09/13 04:27:00;;;;;;;10.93;6.70;;;;;;;9.31;96.44;93600.41;5011179;28;20052;-63
2022/09/13 04:29:27;;;;;;;11.48;6.40;;;;;;;9.29;95.74;93593.78;5011459;28;20050;-63
2022/09/13 04:31:54;;;;;;;9.60;5.78;;;;;;;9.28;94.70;93606.72;5010510;28;20045;-61
2022/09/13 04:34:21;;;;;;;10.33;6.20;;;;;;;9.31;94.89;93607.84;5011355;28;20048;-63
2022/09/13 04:36:51;;;;;;;14.48;9.38;;;;;;;9.20;96.09;93608.03;5011685;28;20151;-66
2022/09/13 04:39:22;;;;;;;12.00;7.72;;;;;;;9.23;96.21;93598.97;5010885;28;20101;-63
2022/09/13 04:41:50;;;;;;;11.75;8.13;;;;;;;9.28;95.88;93614.94;5011457;28;20403;-62
2022/09/13 04:44:17;;;;;;;13.13;7.03;;;;;;;9.25;95.36;93618.50;5010498;28;20507;-63
2022/09/13 04:46:47;;;;;;;10.37;6.60;;;;;;;9.17;95.48;93608.84;5011598;28;20041;-63
2022/09/13 04:49:15;;;;;;;11.48;6.50;;;;;;;9.05;96.76;93612.91;5009587;28;20053;-62
2022/09/13 04:51:43;;;;;;;12.38;7.00;;;;;;;9.03;97.84;93615.28;5011218;28;20050;-62
2022/09/13 04:54:10;;;;;;;11.57;7.05;;;;;;;9.15;96.91;93620.19;5010773;28;20050;-64
2022/09/13 04:56:42;;;;;;;10.15;6.28;;;;;;;9.28;96.45;93623.16;5011153;28;20044;-69
2022/09/13 04:59:10;;;;;;;10.93;6.07;;;;;;;9.38;96.10;93618.69;5009298;28;20050;-64
2022/09/13 05:01:37;;;;;;;11.35;6.07;;;;;;;9.34;96.25;93618.00;5010913;28;20058;-68
2022/09/13 05:04:05;;;;;;;9.57;5.78;;;;;;;9.36;95.49;93619.09;5010615;28;20046;-63
2022/09/13 05:06:32;;;;;;;10.80;5.82;;;;;;;9.44;94.71;93622.53;5010862;28;20052;-63
2022/09/13 05:08:59;;;;;;;10.57;6.65;;;;;;;9.51;94.17;93625.13;5010146;28;20046;-66
2022/09/13 05:11:27;;;;;;;9.13;5.87;;;;;;;9.59;94.36;93617.56;5010707;28;20052;-63
2022/09/13 05:13:56;;;;;;;8.50;5.50;;;;;;;9.61;93.35;93626.16;5010233;28;20056;-62
2022/09/13 05:16:25;;;;;;;10.75;6.28;;;;;;;9.71;92.94;93633.41;5010647;28;20432;-68
2022/09/13 05:18:53;;;;;;;10.68;5.63;;;;;;;9.75;92.85;93625.91;5010064;28;20076;-63
2022/09/13 05:21:20;;;;;;;9.95;5.80;;;;;;;9.70;92.41;93626.41;5008179;28;20709;-63
2022/09/13 05:23:51;;;;;;;9.90;5.87;;;;;;;9.77;92.09;93626.28;5010823;28;20513;-63
2022/09/13 05:26:18;;;;;;;11.40;5.82;;;;;;;9.78;91.72;93619.59;5010000;28;20410;-74
2022/09/13 05:28:45;;;;;;;12.18;6.20;;;;;;;9.70;92.57;93633.84;5010624;28;20434;-63
2022/09/13 05:31:16;;;;;;;10.38;6.60;;;;;;;9.58;93.84;93632.47;5009055;28;20487;-69
2022/09/13 05:33:45;;;;;;;11.57;6.47;;;;;;;9.55;94.87;93625.84;5010182;28;20064;-69
2022/09/13 05:36:11;;;;;;;10.70;6.10;;;;;;;9.75;93.37;93633.38;5010079;28;20045;-64
2022/09/13 05:38:38;;;;;;;10.18;6.25;;;;;;;9.68;94.10;93631.53;5009797;28;20052;-69
2022/09/13 05:41:05;;;;;;;9.35;6.30;;;;;;;9.70;94.16;93631.88;5010046;28;20050;-65
2022/09/13 05:43:34;;;;;;;14.07;6.95;;;;;;;9.60;94.67;93630.88;5009665;28;20157;-69
2022/09/13 05:46:02;;;;;;;12.40;7.00;;;;;;;9.80;94.36;93628.19;5009476;28;20528;-64
2022/09/13 05:48:30;;;;;;;12.80;7.17;;;;;;;9.85;94.27;93632.41;5009861;28;20053;-69
2022/09/13 05:51:10;;;;;;;12.38;7.30;;;;;;;9.71;94.71;93633.41;5009794;28;20049;-62
2022/09/13 05:53:41;;;;;;;12.70;7.43;;;;;;;9.78;94.56;93640.78;5008978;28;20041;-63
2022/09/13 05:56:09;;;;;;;15.10;7.57;;;;;;;9.69;95.67;93635.03;5008819;28;20057;-63
2022/09/13 05:58:44;;;;;;;16.42;7.90;;;;;;;9.83;94.66;93640.28;5009712;28;20049;-64
2022/09/13 06:01:12;;;;;;;15.10;7.17;;;;;;;9.98;93.91;93627.13;5009682;28;20038;-68
2022/09/13 06:03:39;;;;;;;14.38;7.32;;;;;;;10.07;93.15;93632.81;5009995;28;20050;-67
2022/09/13 06:06:07;;;;;;;12.38;7.70;;;;;;;10.12;92.66;93631.53;5009492;28;20532;-62
2022/09/13 06:08:34;;;;;;;12.07;6.88;;;;;;;10.19;92.73;93634.16;5009674;28;20406;-63
2022/09/13 06:11:04;;;;;;;13.57;7.28;;;;;;;10.28;92.14;93637.16;5009499;28;20038;-63
2022/09/13 06:13:32;;;;;;;12.53;7.10;;;;;;;10.29;91.77;93632.44;5009632;28;20096;-62
2022/09/13 06:16:00;;;;;;;11.30;6.78;;;;;;;10.41;91.58;93631.06;5009231;28;20056;-63
2022/09/13 06:18:28;;;;;;;11.88;7.32;;;;;;;10.29;92.13;93626.94;5009533;28;20042;-62
2022/09/13 06:20:59;;;;;;;11.73;7.45;;;;;;;10.29;93.67;93627.72;5009485;28;20487;-62
2022/09/13 06:23:27;;;;;;;13.45;7.30;;;;;;;10.55;92.69;93628.03;5009036;28;20162;-68
2022/09/13 06:26:01;;;;;;;13.93;7.27;;;;;;;10.42;92.26;93611.41;5009112;28;20046;-61
2022/09/13 06:28:29;;;;;;;13.98;7.18;;;;;;;10.43;92.89;93609.47;5008836;28;20057;-68
2022/09/13 06:31:12;;;;;;;15.23;7.45;;;;;;;10.69;93.34;93602.28;5008814;28;20038;-63
2022/09/13 06:33:41;;;;;;;11.07;7.20;;;;;;;10.95;93.28;93603.28;5009223;28;20419;-64
2022/09/13 06:36:16;;;;;;;10.90;7.43;;;;;;;11.14;93.07;93610.69;5004667;28;20469;-66
2022/09/13 06:38:50;;;;;;;13.27;7.53;;;;;;;11.27;93.25;93608.06;5008414;28;20487;-63
2022/09/13 06:41:22;;;;;;;11.27;7.10;;;;;;;11.20;92.71;93613.72;5009703;28;20046;-67
2022/09/13 06:44:08;;;;;;;10.10;7.50;;;;;;;11.22;92.28;93605.81;5009778;28;20069;-63
2022/09/13 06:46:35;;;;;;;11.98;7.40;;;;;;;11.35;92.42;93605.94;5007928;28;21716;-64
2022/09/13 06:49:05;;;;;;;12.52;8.07;;;;;;;11.53;91.48;93602.75;5008558;28;20046;-64
2022/09/13 06:51:33;;;;;;;11.93;7.80;;;;;;;11.91;90.71;93597.53;5009663;28;20419;-67
2022/09/13 06:54:01;;;;;;;11.18;7.65;;;;;;;12.21;90.31;93592.81;5009163;28;20050;-68
2022/09/13 06:56:31;;;;;;;9.85;7.30;;;;;;;12.45;89.77;93587.84;5011793;28;20384;-65
2022/09/13 06:59:00;;;;;;;11.77;7.25;;;;;;;12.76;87.98;93596.41;5013179;28;20050;-64
2022/09/13 07:01:38;;;;;;;11.52;7.20;;;;;;;14.82;81.19;93598.88;5013213;28;20045;-63
2022/09/13 07:04:08;;;;;;;9.93;6.23;;;;;;;18.34;64.85;93587.28;5013039;28;20104;-64
2022/09/13 07:06:37;;;;;;;10.07;6.10;;;;;;;19.97;57.57;93583.81;5013234;28;20046;-64
2022/09/13 07:09:06;;;;;;;10.38;5.80;;;;;;;20.47;55.96;93582.94;5012907;28;20058;-72
2022/09/13 07:11:36;;;;;;;12.77;6.18;;;;;;;21.46;51.88;93569.78;5013100;28;20093;-67
2022/09/13 07:14:07;;;;;;;9.55;5.82;;;;;;;22.27;49.56;93570.59;5013010;28;20081;-65
2022/09/13 07:16:37;;;;;;;8.67;5.70;;;;;;;25.14;45.05;93576.69;5012996;28;20398;-62
2022/09/13 07:19:12;;;;;;;8.20;5.22;;;;;;;26.02;41.33;93570.97;5012545;28;20050;-63
2022/09/13 07:21:39;;;;;;;9.38;5.88;;;;;;;24.55;44.04;93573.13;5012822;28;20060;-63
2022/09/13 07:24:06;;;;;;;8.50;5.45;;;;;;;24.58;43.76;93569.31;5012647;28;20045;-68
2022/09/13 07:26:33;;;;;;;8.77;5.20;;;;;;;25.94;42.16;93574.88;5013059;28;20050;-64
2022/09/13 07:29:03;;;;;;;8.77;5.07;;;;;;;25.10;41.88;93571.34;5012660;28;20040;-63
2022/09/13 07:31:33;;;;;;;8.77;5.20;;;;;;;26.93;39.23;93567.94;5012773;28;20099;-65
2022/09/13 07:34:03;;;;;;;8.48;5.13;;;;;;;28.21;36.81;93566.53;5012092;28;20119;-67
2022/09/13 07:36:32;;;;;;;8.23;4.70;;;;;;;28.16;36.76;93563.81;5011261;28;20077;-70
2022/09/13 07:38:59;;;;;;;8.20;5.18;;;;;;;26.96;38.46;93563.28;5012896;28;20045;-66
2022/09/13 07:41:27;;;;;;;6.43;4.40;;;;;;;27.55;37.93;93569.13;5011777;28;20115;-76
2022/09/13 07:43:54;;;;;;;8.43;4.82;;;;;;;27.23;38.01;93565.00;5012226;28;20376;-66
2022/09/13 07:46:24;;;;;;;7.65;4.63;;;;;;;27.57;37.83;93564.50;5012550;28;20046;-65
2022/09/13 07:48:55;;;;;;;7.43;4.82;;;;;;;29.35;35.98;93563.00;5012532;28;20041;-66
2022/09/13 07:51:27;;;;;;;7.30;4.00;;;;;;;30.39;33.61;93572.13;5011572;28;20088;-67
2022/09/13 07:53:56;;;;;;;7.83;4.30;;;;;;;31.34;32.10;93568.69;5012513;28;20053;-65
2022/09/13 07:56:26;;;;;;;6.10;3.60;;;;;;;31.99;30.63;93573.38;5011515;28;21688;-65
2022/09/13 07:58:54;;;;;;;6.60;3.80;;;;;;;32.13;31.20;93571.16;5012744;28;20123;-69
2022/09/13 08:01:24;;;;;;;6.47;3.80;;;;;;;31.00;31.62;93581.00;5011814;28;21600;-70
2022/09/13 08:03:53;;;;;;;7.25;3.42;;;;;;;31.05;32.15;93579.34;5010949;28;20121;-67
2022/09/13 08:06:21;;;;;;;5.40;3.37;;;;;;;30.19;33.40;93574.38;5011345;28;20350;-65
2022/09/13 08:08:48;;;;;;;5.82;3.30;;;;;;;29.33;35.74;93574.09;5011201;28;20137;-65
2022/09/13 08:11:18;;;;;;;8.00;3.67;;;;;;;28.96;36.53;93570.25;5011765;28;20099;-65
2022/09/13 08:13:46;;;;;;;5.10;3.50;;;;;;;30.13;34.53;93578.69;5011720;28;20060;-73
2022/09/13 08:16:14;;;;;;;6.05;3.28;;;;;;;31.23;33.10;93569.78;5011584;28;20041;-65
2022/09/13 08:18:45;;;;;;;6.27;3.07;;;;;;;30.54;34.19;93588.44;5012129;28;20046;-69
2022/09/13 08:21:13;;;;;;;4.45;3.20;;;;;;;31.03;32.89;93582.72;5011641;28;20398;-65
2022/09/13 08:23:40;;;;;;;6.20;3.30;;;;;;;30.51;34.75;93584.66;5011790;28;20049;-70
2022/09/13 08:26:08;;;;;;;5.20;2.80;;;;;;;31.31;33.02;93577.53;5011280;28;20119;-70
2022/09/13 08:28:36;;;;;;;6.57;3.28;;;;;;;31.31;33.18;93577.53;5011701;28;20080;-65
2022/09/13 08:31:04;;;;;;;14.10;3.30;;;;;;;32.71;30.88;93586.47;5011280;28;20123;-68
2022/09/13 08:33:32;;;;;;;5.30;2.90;;;;;;;32.29;31.65;93586.88;5011618;28;20435;-67
2022/09/13 08:35:59;;;;;;;5.43;2.60;;;;;;;32.14;32.18;93584.03;5010057;28;20042;-65
2022/09/13 08:38:26;;;;;;;5.32;3.00;;;;;;;31.77;32.77;93583.38;5012116;28;20041;-65
2022/09/13 08:41:04;;;;;;;6.22;2.88;;;;;;;32.82;31.72;93585.31;5011626;28;20058;-66
2022/09/13 08:44:02;;;;;;;4.07;2.73;;;;;;;34.44;29.35;93593.88;5010570;28;21931;-66
2022/09/13 08:46:38;;;;;;;4.93;2.88;;;;;;;34.22;29.91;93584.19;5010299;28;20685;-65
2022/09/13 08:49:19;;;;;;;4.65;2.50;;;;;;;34.85;28.29;93591.63;5010916;28;20049;-66
2022/09/13 08:51:48;;;;;;;3.72;2.40;;;;;;;35.79;26.78;93587.91;5011085;28;20054;-67
2022/09/13 08:54:16;;;;;;;5.90;2.67;;;;;;;35.12;27.75;93582.44;5011196;28;20053;-68
2022/09/13 08:56:52;;;;;;;3.73;2.50;;;;;;;35.54;27.73;93582.31;5011172;28;20046;-66
2022/09/13 08:59:18;;;;;;;4.55;2.30;;;;;;;35.68;27.41;93574.19;5010916;28;20064;-66
2022/09/13 09:02:04;;;;;;;4.40;2.47;;;;;;;34.65;28.82;93567.88;5010933;28;20119;-67
2022/09/13 09:04:44;;;;;;;5.32;2.63;;;;;;;35.12;27.91;93559.63;5010263;28;20064;-75
2022/09/13 09:07:19;;;;;;;4.90;2.50;;;;;;;35.09;28.86;93558.66;5010675;28;20042;-66
2022/09/13 09:09:49;;;;;;;3.40;2.50;;;;;;;34.34;29.29;93553.13;5010825;28;20502;-66
2022/09/13 09:12:25;;;;;;;3.35;2.42;;;;;;;35.68;27.82;93542.78;5010726;28;20065;-66
2022/09/13 09:15:10;;;;;;;4.65;2.40;;;;;;;35.93;26.56;93541.84;5011141;28;20068;-66
2022/09/13 09:17:48;;;;;;;5.15;2.45;;;;;;;35.45;27.71;93542.31;5010089;28;20208;-69
2022/09/13 09:20:52;;;;;;;6.07;2.47;;;;;;;35.87;27.22;93527.09;5010477;28;20044;-67
2022/09/13 09:23:44;;;;;;;6.13;2.43;;;;;;;35.98;26.99;93524.44;5005061;28;20095;-66
2022/09/13 09:26:15;;;;;;;5.22;2.30;;;;;;;36.47;25.95;93526.75;5010287;28;20064;-68
2022/09/13 09:28:50;;;;;;;4.15;2.30;;;;;;;35.80;26.26;93535.19;5010817;28;20047;-65
2022/09/13 09:31:32;;;;;;;3.50;2.10;;;;;;;35.77;27.33;93527.78;5010456;28;20058;-69
2022/09/13 09:34:27;;;;;;;4.10;2.40;;;;;;;35.35;27.99;93527.97;5010167;28;20057;-70
2022/09/13 09:37:19;;;;;;;3.77;2.30;;;;;;;34.90;28.90;93521.47;5008540;28;20100;-66
2022/09/13 09:39:48;;;;;;;6.65;2.40;;;;;;;35.87;27.08;93530.69;4998573;28;20614;-66
2022/09/13 09:42:18;;;;;;;4.82;2.13;;;;;;;35.84;26.61;93525.41;5010180;28;20050;-67
2022/09/13 09:44:52;;;;;;;5.20;2.20;;;;;;;34.69;28.45;93522.63;5002105;28;20144;-69
2022/09/13 09:47:22;;;;;;;4.97;1.70;;;;;;;35.40;26.51;93529.81;5010236;28;20045;-66
2022/09/13 09:50:16;;;;;;;4.40;1.67;;;;;;;34.41;27.68;93524.59;5010000;28;20048;-64
2022/09/13 09:53:05;;;;;;;3.33;1.98;;;;;;;34.60;26.48;93529.72;5010079;28;20052;-71
2022/09/13 09:55:44;;;;;;;3.38;1.65;;;;;;;34.92;25.97;93525.22;5009683;28;20077;-69
2022/09/13 09:58:15;;;;;;;5.05;1.60;;;;;;;33.01;28.37;93520.28;5009766;28;20037;-71
2022/09/13 10:00:53;;;;;;;3.00;1.60;;;;;;;33.96;27.79;93515.03;5010153;28;20045;-66
2022/09/13 10:03:25;;;;;;;2.80;1.47;;;;;;;34.15;27.07;93514.56;5009026;28;20685;-66
2022/09/13 10:06:07;;;;;;;3.00;1.40;;;;;;;34.79;24.81;93509.22;5010096;28;20049;-68
2022/09/13 10:08:36;;;;;;;3.70;1.48;;;;;;;34.53;25.02;93507.75;5008850;28;20093;-76
2022/09/13 10:11:04;;;;;;;3.15;1.10;;;;;;;34.34;24.98;93518.94;5009573;28;20050;-66
2022/09/13 10:13:31;;;;;;;2.63;1.30;;;;;;;34.41;24.74;93518.13;5025279;28;20457;-66
2022/09/13 10:16:01;;;;;;;2.23;1.30;;;;;;;33.80;24.84;93511.56;5009325;28;20045;-71
2022/09/13 10:18:29;;;;;;;3.75;1.27;;;;;;;33.99;24.45;93516.00;5005422;28;20666;-68
2022/09/13 10:21:15;;;;;;;2.47;1.30;;;;;;;35.37;22.97;93519.56;5001025;28;20060;-68
2022/09/13 10:23:43;;;;;;;2.63;1.20;;;;;;;35.83;22.17;93513.25;5009830;28;20403;-71
2022/09/13 10:26:15;;;;;;;4.30;1.40;;;;;;;35.15;22.82;93529.91;5009745;28;20072;-66
2022/09/13 10:28:51;;;;;;;2.67;1.30;;;;;;;34.74;23.92;93527.31;5009917;28;20411;-66
2022/09/13 10:31:20;;;;;;;2.58;1.23;;;;;;;36.31;22.90;93521.28;5012115;28;20046;-67
2022/09/13 10:33:49;;;;;;;2.65;1.20;;;;;;;36.91;22.12;93520.81;5013705;28;20045;-68
2022/09/13 10:36:28;;;;;;;2.10;1.13;;;;;;;37.31;21.43;93513.00;5011877;28;20046;-66
2022/09/13 10:39:17;;;;;;;3.35;1.17;;;;;;;36.19;22.46;93521.09;5012282;28;20054;-66
2022/09/13 10:42:08;;;;;;;3.30;1.00;;;;;;;37.37;20.54;93513.44;5014077;28;20066;-67
2022/09/13 10:44:44;;;;;;;2.85;1.10;;;;;;;35.87;22.73;93512.81;5006577;28;20041;-68
2022/09/13 10:47:30;;;;;;;2.83;1.10;;;;;;;33.39;24.89;93521.47;5013547;28;20046;-67
2022/09/13 10:49:58;;;;;;;2.00;1.10;;;;;;;32.76;24.83;93523.03;5013150;28;20062;-66
2022/09/13 10:52:26;;;;;;;2.10;1.10;;;;;;;31.80;24.97;93517.00;5013928;28;20054;-66
2022/09/13 10:54:54;;;;;;;4.27;1.07;;;;;;;32.17;26.11;93509.81;5013490;28;20140;-66
2022/09/13 10:57:35;;;;;;;2.58;1.08;;;;;;;32.09;25.44;93497.72;5012730;28;20451;-65
2022/09/13 11:00:09;;;;;;;2.08;1.00;;;;;;;32.83;23.76;93496.66;5012990;28;20550;-66
2022/09/13 11:02:51;;;;;;;2.78;1.20;;;;;;;32.61;25.42;93506.75;5013498;28;20050;-65
2022/09/13 11:05:51;;;;;;;2.50;1.20;;;;;;;31.35;27.46;93501.38;5013341;28;20045;-70
2022/09/13 11:08:39;;;;;;;4.43;1.20;;;;;;;32.51;25.70;93496.53;4997554;28;20149;-65
2022/09/13 11:11:20;;;;;;;2.60;1.20;;;;;;;30.50;28.05;93488.94;5012842;28;20050;-65
2022/09/13 11:14:21;;;;;;;2.40;1.30;;;;;;;30.10;29.94;93486.41;5013409;28;20483;-66
2022/09/13 11:16:54;;;;;;;3.40;1.20;;;;;;;29.90;30.37;93494.34;5012327;28;20049;-65
2022/09/13 11:19:47;;;;;;;2.58;1.52;;;;;;;29.62;31.34;93481.66;5012459;28;20631;-68
2022/09/13 11:22:31;;;;;;;3.60;1.40;;;;;;;29.71;30.27;93477.63;5010485;28;20048;-65
2022/09/13 11:25:36;;;;;;;2.17;1.20;;;;;;;28.82;30.43;93486.84;5012310;28;20195;-65
2022/09/13 11:28:05;;;;;;;2.72;1.35;;;;;;;28.41;31.59;93488.16;5012413;28;20069;-65
2022/09/13 11:31:02;;;;;;;4.53;1.30;;;;;;;28.46;33.09;93473.19;5011683;28;20046;-70
2022/09/13 11:34:04;;;;;;;2.88;1.60;;;;;;;28.21;33.91;93472.66;5011973;28;20042;-69
2022/09/13 11:36:37;;;;;;;4.53;1.30;;;;;;;28.46;32.10;93465.47;4998303;28;20365;-68
2022/09/13 11:39:27;;;;;;;2.47;1.30;;;;;;;28.82;32.46;93453.72;5012205;28;20045;-65
2022/09/13 11:42:09;;;;;;;2.30;1.30;;;;;;;28.68;32.07;93452.22;5012607;28;20114;-70
2022/09/13 11:44:35;;;;;;;3.72;1.05;;;;;;;28.39;31.02;93457.69;5011655;28;20049;-66
2022/09/13 11:47:36;;;;;;;2.40;1.02;;;;;;;28.69;30.52;93459.38;5009835;28;20041;-70
2022/09/13 11:50:16;;;;;;;1.70;0.70;;;;;;;28.63;30.21;93455.91;5010682;28;20533;-66
2022/09/13 11:53:01;;;;;;;1.60;0.60;;;;;;;27.88;27.48;93461.47;5012673;28;20072;-68
2022/09/13 11:55:34;;;;;;;1.92;0.70;;;;;;;27.97;27.55;93454.66;5012343;28;20045;-65
2022/09/13 11:58:12;;;;;;;1.85;0.80;;;;;;;27.98;27.67;93453.34;5011717;28;20483;-66
2022/09/13 12:00:54;;;;;;;2.30;0.80;;;;;;;27.67;28.49;93449.28;5012486;28;20057;-68
2022/09/13 12:03:30;;;;;;;1.97;0.60;;;;;;;28.40;28.50;93455.63;5011378;28;20845;-65
2022/09/13 12:06:01;;;;;;;1.73;0.60;;;;;;;28.67;27.34;93450.69;5011541;28;20114;-70